Terminal Aerodrome Forecast
Issued by NWS

Home | Current Version | Previous Version | Text Only | Print | Product List | Glossary On
Versions: 1 2 3 4 5 6 7 8 9 10 11 12 13
467
FTUS46 KMTR 280546
TAFSJC
TAF
KSJC 280546Z 2806/0106 29005KT P6SM SKC
     FM280800 29003KT P6SM SKC
     FM282100 30012KT P6SM SKC
     FM010300 24004KT P6SM SKC=

USA.gov is the U.S. government's official web portal to all federal, state and local government web resources and services.